sensor_id;sensor_type;location;lat;lon;timestamp;P1;durP1;ratioP1;P2;durP2;ratioP2
64401;SDS011;50724;42.376;23.768;2024-01-11T00:01:25;7.25;;;2.50;;
64401;SDS011;50724;42.376;23.768;2024-01-11T00:04:26;5.50;;;2.20;;
64401;SDS011;50724;42.376;23.768;2024-01-11T00:07:26;8.80;;;2.30;;
64401;SDS011;50724;42.376;23.768;2024-01-11T00:10:27;5.93;;;2.42;;
64401;SDS011;50724;42.376;23.768;2024-01-11T00:13:27;7.45;;;2.67;;
64401;SDS011;50724;42.376;23.768;2024-01-11T00:16:28;6.35;;;2.70;;
64401;SDS011;50724;42.376;23.768;2024-01-11T00:19:28;5.13;;;2.13;;
64401;SDS011;50724;42.376;23.768;2024-01-11T00:22:29;5.97;;;2.63;;
64401;SDS011;50724;42.376;23.768;2024-01-11T00:25:29;7.65;;;2.03;;
64401;SDS011;50724;42.376;23.768;2024-01-11T00:28:30;6.63;;;2.53;;
64401;SDS011;50724;42.376;23.768;2024-01-11T00:31:30;4.82;;;2.13;;
64401;SDS011;50724;42.376;23.768;2024-01-11T00:34:31;6.65;;;2.30;;
64401;SDS011;50724;42.376;23.768;2024-01-11T00:37:31;6.05;;;2.00;;
64401;SDS011;50724;42.376;23.768;2024-01-11T00:40:32;5.93;;;1.98;;
64401;SDS011;50724;42.376;23.768;2024-01-11T00:43:33;5.93;;;2.38;;
64401;SDS011;50724;42.376;23.768;2024-01-11T00:46:34;7.38;;;2.00;;
64401;SDS011;50724;42.376;23.768;2024-01-11T00:49:34;9.63;;;2.80;;
64401;SDS011;50724;42.376;23.768;2024-01-11T00:52:35;6.57;;;2.70;;
64401;SDS011;50724;42.376;23.768;2024-01-11T00:55:35;6.53;;;2.30;;
64401;SDS011;50724;42.376;23.768;2024-01-11T00:58:36;3.50;;;1.95;;
64401;SDS011;50724;42.376;23.768;2024-01-11T01:01:36;5.97;;;2.17;;
64401;SDS011;50724;42.376;23.768;2024-01-11T01:04:37;4.60;;;1.98;;
64401;SDS011;50724;42.376;23.768;2024-01-11T01:07:39;7.95;;;2.60;;
64401;SDS011;50724;42.376;23.768;2024-01-11T01:10:39;5.40;;;2.20;;
64401;SDS011;50724;42.376;23.768;2024-01-11T01:13:40;7.28;;;2.60;;
64401;SDS011;50724;42.376;23.768;2024-01-11T01:16:40;5.60;;;2.25;;
64401;SDS011;50724;42.376;23.768;2024-01-11T01:19:41;7.00;;;2.28;;
64401;SDS011;50724;42.376;23.768;2024-01-11T01:22:42;10.30;;;2.38;;
64401;SDS011;50724;42.376;23.768;2024-01-11T01:25:42;5.78;;;2.28;;
64401;SDS011;50724;42.376;23.768;2024-01-11T01:28:42;6.63;;;2.30;;
64401;SDS011;50724;42.376;23.768;2024-01-11T01:31:51;6.90;;;2.33;;
64401;SDS011;50724;42.376;23.768;2024-01-11T01:34:52;6.32;;;2.30;;
64401;SDS011;50724;42.376;23.768;2024-01-11T01:37:52;4.65;;;1.92;;
64401;SDS011;50724;42.376;23.768;2024-01-11T01:40:53;6.47;;;2.10;;
64401;SDS011;50724;42.376;23.768;2024-01-11T01:43:53;6.68;;;2.45;;
64401;SDS011;50724;42.376;23.768;2024-01-11T01:46:54;3.83;;;1.52;;
64401;SDS011;50724;42.376;23.768;2024-01-11T01:49:54;6.25;;;2.08;;
64401;SDS011;50724;42.376;23.768;2024-01-11T01:52:56;5.40;;;2.42;;
64401;SDS011;50724;42.376;23.768;2024-01-11T01:55:59;6.65;;;2.20;;
64401;SDS011;50724;42.376;23.768;2024-01-11T01:59:00;5.35;;;2.25;;
64401;SDS011;50724;42.376;23.768;2024-01-11T02:02:01;5.32;;;2.25;;
64401;SDS011;50724;42.376;23.768;2024-01-11T02:05:02;5.70;;;2.47;;
64401;SDS011;50724;42.376;23.768;2024-01-11T02:08:03;4.95;;;2.22;;
64401;SDS011;50724;42.376;23.768;2024-01-11T02:11:16;2.90;;;1.63;;
64401;SDS011;50724;42.376;23.768;2024-01-11T02:14:19;4.22;;;1.85;;
64401;SDS011;50724;42.376;23.768;2024-01-11T02:17:19;6.03;;;2.00;;
64401;SDS011;50724;42.376;23.768;2024-01-11T02:20:20;6.18;;;2.17;;
64401;SDS011;50724;42.376;23.768;2024-01-11T02:23:21;5.20;;;2.28;;
64401;SDS011;50724;42.376;23.768;2024-01-11T02:26:24;6.28;;;2.20;;
64401;SDS011;50724;42.376;23.768;2024-01-11T02:29:25;5.78;;;2.55;;
64401;SDS011;50724;42.376;23.768;2024-01-11T02:32:26;8.85;;;3.13;;
64401;SDS011;50724;42.376;23.768;2024-01-11T02:35:27;5.00;;;2.30;;
64401;SDS011;50724;42.376;23.768;2024-01-11T02:38:28;8.45;;;2.35;;
64401;SDS011;50724;42.376;23.768;2024-01-11T02:41:29;6.60;;;2.03;;
64401;SDS011;50724;42.376;23.768;2024-01-11T02:44:32;6.68;;;2.42;;
64401;SDS011;50724;42.376;23.768;2024-01-11T02:47:32;5.17;;;2.10;;
64401;SDS011;50724;42.376;23.768;2024-01-11T02:50:33;5.20;;;2.63;;
64401;SDS011;50724;42.376;23.768;2024-01-11T02:53:33;5.93;;;1.88;;
64401;SDS011;50724;42.376;23.768;2024-01-11T02:56:34;4.60;;;2.20;;
64401;SDS011;50724;42.376;23.768;2024-01-11T02:59:35;3.80;;;1.73;;
64401;SDS011;50724;42.376;23.768;2024-01-11T03:02:37;8.55;;;3.17;;
64401;SDS011;50724;42.376;23.768;2024-01-11T03:05:38;6.55;;;2.45;;
64401;SDS011;50724;42.376;23.768;2024-01-11T03:08:39;5.32;;;2.20;;
64401;SDS011;50724;42.376;23.768;2024-01-11T03:11:40;7.07;;;2.20;;
64401;SDS011;50724;42.376;23.768;2024-01-11T03:14:40;7.47;;;2.22;;
64401;SDS011;50724;42.376;23.768;2024-01-11T03:17:41;6.13;;;2.20;;
64401;SDS011;50724;42.376;23.768;2024-01-11T03:20:41;6.45;;;2.35;;
64401;SDS011;50724;42.376;23.768;2024-01-11T03:23:42;4.78;;;2.05;;
64401;SDS011;50724;42.376;23.768;2024-01-11T03:26:42;4.57;;;2.10;;
64401;SDS011;50724;42.376;23.768;2024-01-11T03:29:43;7.65;;;2.35;;
64401;SDS011;50724;42.376;23.768;2024-01-11T03:32:43;7.65;;;2.45;;
64401;SDS011;50724;42.376;23.768;2024-01-11T03:35:52;8.45;;;2.80;;
64401;SDS011;50724;42.376;23.768;2024-01-11T03:38:53;5.45;;;1.85;;
64401;SDS011;50724;42.376;23.768;2024-01-11T03:41:53;8.20;;;2.45;;
64401;SDS011;50724;42.376;23.768;2024-01-11T03:44:54;8.52;;;2.63;;
64401;SDS011;50724;42.376;23.768;2024-01-11T03:47:54;7.50;;;2.17;;
64401;SDS011;50724;42.376;23.768;2024-01-11T03:50:55;8.77;;;2.17;;
64401;SDS011;50724;42.376;23.768;2024-01-11T03:53:55;6.05;;;2.00;;
64401;SDS011;50724;42.376;23.768;2024-01-11T03:56:56;9.02;;;3.00;;
64401;SDS011;50724;42.376;23.768;2024-01-11T03:59:57;4.07;;;1.48;;
64401;SDS011;50724;42.376;23.768;2024-01-11T04:02:59;5.38;;;1.85;;
64401;SDS011;50724;42.376;23.768;2024-01-11T04:05:59;4.28;;;1.95;;
64401;SDS011;50724;42.376;23.768;2024-01-11T04:09:00;4.70;;;1.55;;
64401;SDS011;50724;42.376;23.768;2024-01-11T04:12:00;5.20;;;2.47;;
64401;SDS011;50724;42.376;23.768;2024-01-11T04:15:01;5.38;;;2.10;;
64401;SDS011;50724;42.376;23.768;2024-01-11T04:18:01;4.03;;;1.83;;
64401;SDS011;50724;42.376;23.768;2024-01-11T04:21:02;4.82;;;1.60;;
64401;SDS011;50724;42.376;23.768;2024-01-11T04:24:02;4.75;;;1.92;;
64401;SDS011;50724;42.376;23.768;2024-01-11T04:27:03;4.28;;;1.80;;
64401;SDS011;50724;42.376;23.768;2024-01-11T04:30:04;2.88;;;1.58;;
64401;SDS011;50724;42.376;23.768;2024-01-11T04:33:04;3.28;;;1.65;;
64401;SDS011;50724;42.376;23.768;2024-01-11T04:36:05;3.17;;;1.75;;
64401;SDS011;50724;42.376;23.768;2024-01-11T04:39:06;3.13;;;1.52;;
64401;SDS011;50724;42.376;23.768;2024-01-11T04:42:07;5.75;;;2.40;;
64401;SDS011;50724;42.376;23.768;2024-01-11T04:45:08;5.18;;;2.08;;
64401;SDS011;50724;42.376;23.768;2024-01-11T04:48:08;4.88;;;1.92;;
64401;SDS011;50724;42.376;23.768;2024-01-11T04:51:09;6.05;;;2.03;;
64401;SDS011;50724;42.376;23.768;2024-01-11T04:54:10;6.47;;;1.80;;
64401;SDS011;50724;42.376;23.768;2024-01-11T04:57:10;7.07;;;2.08;;
64401;SDS011;50724;42.376;23.768;2024-01-11T05:00:11;6.00;;;2.55;;
64401;SDS011;50724;42.376;23.768;2024-01-11T05:03:11;6.25;;;2.40;;
64401;SDS011;50724;42.376;23.768;2024-01-11T05:06:15;5.78;;;2.33;;
64401;SDS011;50724;42.376;23.768;2024-01-11T05:09:17;6.88;;;2.78;;
64401;SDS011;50724;42.376;23.768;2024-01-11T05:12:17;4.03;;;1.70;;
64401;SDS011;50724;42.376;23.768;2024-01-11T05:15:17;7.35;;;3.00;;
64401;SDS011;50724;42.376;23.768;2024-01-11T05:18:18;9.70;;;3.67;;
64401;SDS011;50724;42.376;23.768;2024-01-11T05:21:19;13.45;;;4.25;;
64401;SDS011;50724;42.376;23.768;2024-01-11T05:24:20;12.02;;;4.18;;
64401;SDS011;50724;42.376;23.768;2024-01-11T05:27:20;11.13;;;3.47;;
64401;SDS011;50724;42.376;23.768;2024-01-11T05:30:20;9.40;;;3.40;;
64401;SDS011;50724;42.376;23.768;2024-01-11T05:33:21;6.85;;;2.35;;
64401;SDS011;50724;42.376;23.768;2024-01-11T05:36:21;6.72;;;2.15;;
64401;SDS011;50724;42.376;23.768;2024-01-11T05:39:22;5.73;;;2.33;;
64401;SDS011;50724;42.376;23.768;2024-01-11T05:42:23;5.15;;;2.05;;
64401;SDS011;50724;42.376;23.768;2024-01-11T05:45:23;4.70;;;2.05;;
64401;SDS011;50724;42.376;23.768;2024-01-11T05:48:24;6.35;;;2.10;;
64401;SDS011;50724;42.376;23.768;2024-01-11T05:51:24;4.85;;;2.13;;
64401;SDS011;50724;42.376;23.768;2024-01-11T05:54:25;4.50;;;1.77;;
64401;SDS011;50724;42.376;23.768;2024-01-11T05:57:26;4.85;;;2.38;;
64401;SDS011;50724;42.376;23.768;2024-01-11T06:00:27;4.40;;;2.20;;
64401;SDS011;50724;42.376;23.768;2024-01-11T06:03:27;6.90;;;2.50;;
64401;SDS011;50724;42.376;23.768;2024-01-11T06:06:28;4.55;;;2.05;;
64401;SDS011;50724;42.376;23.768;2024-01-11T06:09:29;5.75;;;2.13;;
64401;SDS011;50724;42.376;23.768;2024-01-11T06:12:30;6.35;;;2.35;;
64401;SDS011;50724;42.376;23.768;2024-01-11T06:15:31;6.15;;;2.22;;
64401;SDS011;50724;42.376;23.768;2024-01-11T06:18:32;4.00;;;1.73;;
64401;SDS011;50724;42.376;23.768;2024-01-11T06:21:32;3.95;;;2.20;;
64401;SDS011;50724;42.376;23.768;2024-01-11T06:24:33;4.53;;;2.00;;
64401;SDS011;50724;42.376;23.768;2024-01-11T06:27:33;5.07;;;1.88;;
64401;SDS011;50724;42.376;23.768;2024-01-11T06:30:34;4.93;;;1.92;;
64401;SDS011;50724;42.376;23.768;2024-01-11T06:33:34;4.68;;;1.80;;
64401;SDS011;50724;42.376;23.768;2024-01-11T06:36:37;5.97;;;2.13;;
64401;SDS011;50724;42.376;23.768;2024-01-11T06:39:37;3.75;;;1.98;;
64401;SDS011;50724;42.376;23.768;2024-01-11T06:42:37;5.03;;;2.03;;
64401;SDS011;50724;42.376;23.768;2024-01-11T06:45:38;7.00;;;3.17;;
64401;SDS011;50724;42.376;23.768;2024-01-11T06:48:39;5.25;;;1.98;;
64401;SDS011;50724;42.376;23.768;2024-01-11T06:51:39;8.23;;;3.67;;
64401;SDS011;50724;42.376;23.768;2024-01-11T06:54:40;9.18;;;4.10;;
64401;SDS011;50724;42.376;23.768;2024-01-11T06:57:40;8.20;;;2.90;;
64401;SDS011;50724;42.376;23.768;2024-01-11T07:00:41;7.88;;;3.08;;
64401;SDS011;50724;42.376;23.768;2024-01-11T07:03:43;7.22;;;2.92;;
64401;SDS011;50724;42.376;23.768;2024-01-11T07:06:43;11.88;;;4.25;;
64401;SDS011;50724;42.376;23.768;2024-01-11T07:09:52;16.00;;;8.55;;
64401;SDS011;50724;42.376;23.768;2024-01-11T07:12:55;11.82;;;5.45;;
64401;SDS011;50724;42.376;23.768;2024-01-11T07:15:56;8.75;;;4.18;;
64401;SDS011;50724;42.376;23.768;2024-01-11T07:18:57;5.55;;;2.80;;
64401;SDS011;50724;42.376;23.768;2024-01-11T07:21:58;8.63;;;3.75;;
64401;SDS011;50724;42.376;23.768;2024-01-11T07:24:58;14.10;;;5.10;;
64401;SDS011;50724;42.376;23.768;2024-01-11T07:28:07;14.25;;;4.50;;
64401;SDS011;50724;42.376;23.768;2024-01-11T07:31:09;13.50;;;4.30;;
64401;SDS011;50724;42.376;23.768;2024-01-11T07:34:10;11.77;;;4.88;;
64401;SDS011;50724;42.376;23.768;2024-01-11T07:37:11;12.57;;;4.32;;
64401;SDS011;50724;42.376;23.768;2024-01-11T07:40:11;10.73;;;3.63;;
64401;SDS011;50724;42.376;23.768;2024-01-11T07:43:13;6.53;;;3.00;;
64401;SDS011;50724;42.376;23.768;2024-01-11T07:46:14;5.65;;;2.22;;
64401;SDS011;50724;42.376;23.768;2024-01-11T07:49:14;10.18;;;3.38;;
64401;SDS011;50724;42.376;23.768;2024-01-11T07:52:15;7.88;;;2.80;;
64401;SDS011;50724;42.376;23.768;2024-01-11T07:55:24;7.65;;;2.90;;
64401;SDS011;50724;42.376;23.768;2024-01-11T07:58:26;9.05;;;2.90;;
64401;SDS011;50724;42.376;23.768;2024-01-11T08:01:26;5.75;;;2.88;;
64401;SDS011;50724;42.376;23.768;2024-01-11T08:04:27;7.28;;;3.25;;
64401;SDS011;50724;42.376;23.768;2024-01-11T08:07:27;7.43;;;2.92;;
64401;SDS011;50724;42.376;23.768;2024-01-11T08:16:27;43.58;;;12.13;;
64401;SDS011;50724;42.376;23.768;2024-01-11T08:19:36;31.27;;;8.70;;
64401;SDS011;50724;42.376;23.768;2024-01-11T08:22:41;53.05;;;11.98;;
64401;SDS011;50724;42.376;23.768;2024-01-11T08:25:43;30.38;;;8.63;;
64401;SDS011;50724;42.376;23.768;2024-01-11T08:28:43;28.45;;;7.65;;
64401;SDS011;50724;42.376;23.768;2024-01-11T08:31:44;24.50;;;8.23;;
64401;SDS011;50724;42.376;23.768;2024-01-11T08:34:44;9.68;;;3.72;;
64401;SDS011;50724;42.376;23.768;2024-01-11T08:37:45;14.40;;;4.72;;
64401;SDS011;50724;42.376;23.768;2024-01-11T08:40:45;14.32;;;4.03;;
64401;SDS011;50724;42.376;23.768;2024-01-11T08:43:46;17.23;;;5.63;;
64401;SDS011;50724;42.376;23.768;2024-01-11T08:46:46;21.33;;;4.97;;
64401;SDS011;50724;42.376;23.768;2024-01-11T08:49:47;25.63;;;7.00;;
64401;SDS011;50724;42.376;23.768;2024-01-11T08:52:47;16.33;;;4.32;;
64401;SDS011;50724;42.376;23.768;2024-01-11T08:55:48;9.07;;;3.88;;
64401;SDS011;50724;42.376;23.768;2024-01-11T08:58:49;9.60;;;3.70;;
64401;SDS011;50724;42.376;23.768;2024-01-11T09:01:49;13.75;;;4.40;;
64401;SDS011;50724;42.376;23.768;2024-01-11T09:04:50;15.73;;;4.70;;
64401;SDS011;50724;42.376;23.768;2024-01-11T09:07:50;15.43;;;4.75;;
64401;SDS011;50724;42.376;23.768;2024-01-11T09:10:51;18.45;;;5.75;;
64401;SDS011;50724;42.376;23.768;2024-01-11T09:13:51;8.50;;;3.25;;
64401;SDS011;50724;42.376;23.768;2024-01-11T09:16:51;8.73;;;3.72;;
64401;SDS011;50724;42.376;23.768;2024-01-11T09:19:52;13.25;;;4.45;;
64401;SDS011;50724;42.376;23.768;2024-01-11T09:22:53;18.50;;;5.45;;
64401;SDS011;50724;42.376;23.768;2024-01-11T09:25:53;9.57;;;3.80;;
64401;SDS011;50724;42.376;23.768;2024-01-11T09:28:54;17.48;;;4.88;;
64401;SDS011;50724;42.376;23.768;2024-01-11T09:31:54;14.18;;;3.72;;
64401;SDS011;50724;42.376;23.768;2024-01-11T09:35:03;8.75;;;3.50;;
64401;SDS011;50724;42.376;23.768;2024-01-11T09:38:04;10.48;;;4.22;;
64401;SDS011;50724;42.376;23.768;2024-01-11T09:41:06;12.00;;;4.68;;
64401;SDS011;50724;42.376;23.768;2024-01-11T09:47:10;10.15;;;4.43;;
64401;SDS011;50724;42.376;23.768;2024-01-11T09:50:11;14.73;;;4.95;;
64401;SDS011;50724;42.376;23.768;2024-01-11T09:56:23;9.93;;;4.80;;
64401;SDS011;50724;42.376;23.768;2024-01-11T09:59:24;9.48;;;4.05;;
64401;SDS011;50724;42.376;23.768;2024-01-11T10:02:25;3.53;;;1.65;;
64401;SDS011;50724;42.376;23.768;2024-01-11T10:05:26;20.23;;;6.28;;
64401;SDS011;50724;42.376;23.768;2024-01-11T10:08:29;10.20;;;4.03;;
64401;SDS011;50724;42.376;23.768;2024-01-11T10:11:30;4.43;;;2.05;;
64401;SDS011;50724;42.376;23.768;2024-01-11T10:14:30;6.93;;;2.42;;
64401;SDS011;50724;42.376;23.768;2024-01-11T10:17:32;8.32;;;3.10;;
64401;SDS011;50724;42.376;23.768;2024-01-11T10:20:32;3.60;;;1.70;;
64401;SDS011;50724;42.376;23.768;2024-01-11T10:23:33;5.93;;;2.60;;
64401;SDS011;50724;42.376;23.768;2024-01-11T10:26:35;4.70;;;1.77;;
64401;SDS011;50724;42.376;23.768;2024-01-11T10:29:35;3.25;;;1.52;;
64401;SDS011;50724;42.376;23.768;2024-01-11T10:32:37;4.28;;;1.80;;
64401;SDS011;50724;42.376;23.768;2024-01-11T10:35:38;3.50;;;1.77;;
64401;SDS011;50724;42.376;23.768;2024-01-11T10:38:39;3.88;;;1.80;;
64401;SDS011;50724;42.376;23.768;2024-01-11T10:41:40;3.05;;;1.30;;
64401;SDS011;50724;42.376;23.768;2024-01-11T10:44:45;4.47;;;1.60;;
64401;SDS011;50724;42.376;23.768;2024-01-11T10:47:51;6.13;;;2.67;;
64401;SDS011;50724;42.376;23.768;2024-01-11T10:50:57;4.30;;;1.70;;
64401;SDS011;50724;42.376;23.768;2024-01-11T10:54:00;4.43;;;2.08;;
64401;SDS011;50724;42.376;23.768;2024-01-11T10:57:02;5.93;;;2.33;;
64401;SDS011;50724;42.376;23.768;2024-01-11T11:00:05;8.38;;;2.90;;
64401;SDS011;50724;42.376;23.768;2024-01-11T11:03:06;6.85;;;2.75;;
64401;SDS011;50724;42.376;23.768;2024-01-11T11:06:09;5.68;;;2.85;;
64401;SDS011;50724;42.376;23.768;2024-01-11T11:09:11;8.27;;;2.80;;
64401;SDS011;50724;42.376;23.768;2024-01-11T11:12:15;7.05;;;3.25;;
64401;SDS011;50724;42.376;23.768;2024-01-11T11:15:17;8.02;;;4.13;;
64401;SDS011;50724;42.376;23.768;2024-01-11T11:18:18;7.55;;;4.28;;
64401;SDS011;50724;42.376;23.768;2024-01-11T11:21:20;6.57;;;3.10;;
64401;SDS011;50724;42.376;23.768;2024-01-11T11:24:21;10.70;;;4.30;;
64401;SDS011;50724;42.376;23.768;2024-01-11T11:27:21;9.07;;;4.20;;
64401;SDS011;50724;42.376;23.768;2024-01-11T11:30:22;7.03;;;2.95;;
64401;SDS011;50724;42.376;23.768;2024-01-11T11:33:23;7.55;;;3.17;;
64401;SDS011;50724;42.376;23.768;2024-01-11T11:36:28;9.20;;;4.05;;
64401;SDS011;50724;42.376;23.768;2024-01-11T11:39:29;8.43;;;3.75;;
64401;SDS011;50724;42.376;23.768;2024-01-11T11:42:34;8.05;;;3.75;;
64401;SDS011;50724;42.376;23.768;2024-01-11T11:45:35;8.70;;;4.75;;
64401;SDS011;50724;42.376;23.768;2024-01-11T11:51:42;8.90;;;3.75;;
64401;SDS011;50724;42.376;23.768;2024-01-11T11:54:43;8.35;;;3.75;;
64401;SDS011;50724;42.376;23.768;2024-01-11T11:57:44;5.93;;;2.78;;
64401;SDS011;50724;42.376;23.768;2024-01-11T12:00:45;6.32;;;2.85;;
64401;SDS011;50724;42.376;23.768;2024-01-11T12:03:47;6.63;;;2.95;;
64401;SDS011;50724;42.376;23.768;2024-01-11T12:06:51;6.32;;;3.22;;
64401;SDS011;50724;42.376;23.768;2024-01-11T12:09:52;7.03;;;3.20;;
64401;SDS011;50724;42.376;23.768;2024-01-11T12:12:52;6.50;;;2.38;;
64401;SDS011;50724;42.376;23.768;2024-01-11T12:15:54;6.03;;;3.15;;
64401;SDS011;50724;42.376;23.768;2024-01-11T12:18:55;5.38;;;2.28;;
64401;SDS011;50724;42.376;23.768;2024-01-11T12:21:56;6.28;;;2.42;;
64401;SDS011;50724;42.376;23.768;2024-01-11T12:24:56;7.47;;;3.10;;
64401;SDS011;50724;42.376;23.768;2024-01-11T12:27:57;6.05;;;2.25;;
64401;SDS011;50724;42.376;23.768;2024-01-11T12:30:58;7.18;;;2.45;;
64401;SDS011;50724;42.376;23.768;2024-01-11T12:33:58;5.65;;;2.88;;
64401;SDS011;50724;42.376;23.768;2024-01-11T12:36:59;4.82;;;2.60;;
64401;SDS011;50724;42.376;23.768;2024-01-11T12:40:01;4.80;;;2.42;;
64401;SDS011;50724;42.376;23.768;2024-01-11T12:43:03;5.05;;;2.22;;
64401;SDS011;50724;42.376;23.768;2024-01-11T12:46:04;6.07;;;2.17;;
64401;SDS011;50724;42.376;23.768;2024-01-11T12:49:05;6.22;;;2.50;;
64401;SDS011;50724;42.376;23.768;2024-01-11T12:52:15;6.32;;;2.63;;
64401;SDS011;50724;42.376;23.768;2024-01-11T12:55:19;8.23;;;2.47;;
64401;SDS011;50724;42.376;23.768;2024-01-11T12:58:20;7.03;;;2.92;;
64401;SDS011;50724;42.376;23.768;2024-01-11T13:01:22;5.32;;;2.05;;
64401;SDS011;50724;42.376;23.768;2024-01-11T13:04:22;5.97;;;2.55;;
64401;SDS011;50724;42.376;23.768;2024-01-11T13:07:23;7.53;;;2.70;;
64401;SDS011;50724;42.376;23.768;2024-01-11T13:10:24;6.93;;;2.72;;
64401;SDS011;50724;42.376;23.768;2024-01-11T13:13:27;5.57;;;2.58;;
64401;SDS011;50724;42.376;23.768;2024-01-11T13:16:30;5.30;;;2.65;;
64401;SDS011;50724;42.376;23.768;2024-01-11T13:19:31;6.75;;;2.45;;
64401;SDS011;50724;42.376;23.768;2024-01-11T13:22:31;5.45;;;3.10;;
64401;SDS011;50724;42.376;23.768;2024-01-11T13:25:31;7.38;;;3.10;;
64401;SDS011;50724;42.376;23.768;2024-01-11T13:35:22;4.53;;;2.22;;
64401;SDS011;50724;42.376;23.768;2024-01-11T13:38:31;6.10;;;2.65;;
64401;SDS011;50724;42.376;23.768;2024-01-11T13:41:32;4.43;;;2.35;;
64401;SDS011;50724;42.376;23.768;2024-01-11T13:44:35;3.17;;;1.73;;
64401;SDS011;50724;42.376;23.768;2024-01-11T13:47:36;5.55;;;2.08;;
64401;SDS011;50724;42.376;23.768;2024-01-11T13:50:36;4.35;;;2.47;;
64401;SDS011;50724;42.376;23.768;2024-01-11T13:53:37;6.35;;;2.55;;
64401;SDS011;50724;42.376;23.768;2024-01-11T13:56:37;5.38;;;2.78;;
64401;SDS011;50724;42.376;23.768;2024-01-11T13:59:38;4.75;;;2.72;;
64401;SDS011;50724;42.376;23.768;2024-01-11T14:02:38;7.30;;;2.80;;
64401;SDS011;50724;42.376;23.768;2024-01-11T14:05:39;3.55;;;1.70;;
64401;SDS011;50724;42.376;23.768;2024-01-11T14:08:48;6.70;;;3.20;;
64401;SDS011;50724;42.376;23.768;2024-01-11T14:11:49;5.22;;;2.70;;
64401;SDS011;50724;42.376;23.768;2024-01-11T14:14:49;3.47;;;1.70;;
64401;SDS011;50724;42.376;23.768;2024-01-11T14:17:50;5.82;;;2.50;;
64401;SDS011;50724;42.376;23.768;2024-01-11T14:20:51;4.90;;;2.47;;
64401;SDS011;50724;42.376;23.768;2024-01-11T14:23:51;5.88;;;2.08;;
64401;SDS011;50724;42.376;23.768;2024-01-11T14:26:52;5.43;;;2.53;;
64401;SDS011;50724;42.376;23.768;2024-01-11T14:29:52;11.73;;;3.08;;
64401;SDS011;50724;42.376;23.768;2024-01-11T14:32:53;3.15;;;1.83;;
64401;SDS011;50724;42.376;23.768;2024-01-11T14:35:53;6.03;;;2.67;;
64401;SDS011;50724;42.376;23.768;2024-01-11T14:38:54;4.63;;;2.40;;
64401;SDS011;50724;42.376;23.768;2024-01-11T14:41:54;8.13;;;3.03;;
64401;SDS011;50724;42.376;23.768;2024-01-11T14:44:55;8.45;;;3.03;;
64401;SDS011;50724;42.376;23.768;2024-01-11T14:48:04;6.10;;;2.60;;
64401;SDS011;50724;42.376;23.768;2024-01-11T14:51:04;5.38;;;2.67;;
64401;SDS011;50724;42.376;23.768;2024-01-11T14:54:05;4.18;;;2.05;;
64401;SDS011;50724;42.376;23.768;2024-01-11T14:57:05;5.82;;;2.13;;
64401;SDS011;50724;42.376;23.768;2024-01-11T15:00:06;1.17;;;1.00;;
64401;SDS011;50724;42.376;23.768;2024-01-11T15:03:10;5.60;;;2.88;;
64401;SDS011;50724;42.376;23.768;2024-01-11T15:06:11;5.03;;;2.55;;
64401;SDS011;50724;42.376;23.768;2024-01-11T15:09:12;7.43;;;3.35;;
64401;SDS011;50724;42.376;23.768;2024-01-11T15:12:13;6.13;;;2.95;;
64401;SDS011;50724;42.376;23.768;2024-01-11T15:15:13;3.13;;;1.33;;
64401;SDS011;50724;42.376;23.768;2024-01-11T15:18:14;9.50;;;3.38;;
64401;SDS011;50724;42.376;23.768;2024-01-11T15:21:14;5.72;;;3.75;;
64401;SDS011;50724;42.376;23.768;2024-01-11T15:24:15;8.65;;;3.30;;
64401;SDS011;50724;42.376;23.768;2024-01-11T15:27:15;9.25;;;3.10;;
64401;SDS011;50724;42.376;23.768;2024-01-11T15:30:16;8.13;;;3.55;;
64401;SDS011;50724;42.376;23.768;2024-01-11T15:33:16;7.68;;;3.35;;
64401;SDS011;50724;42.376;23.768;2024-01-11T15:36:17;8.00;;;4.15;;
64401;SDS011;50724;42.376;23.768;2024-01-11T15:39:18;9.65;;;4.60;;
64401;SDS011;50724;42.376;23.768;2024-01-11T15:42:18;10.30;;;4.55;;
64401;SDS011;50724;42.376;23.768;2024-01-11T15:45:18;9.30;;;4.55;;
64401;SDS011;50724;42.376;23.768;2024-01-11T15:48:20;14.38;;;6.28;;
64401;SDS011;50724;42.376;23.768;2024-01-11T15:51:20;4.85;;;2.75;;
64401;SDS011;50724;42.376;23.768;2024-01-11T15:54:21;14.00;;;7.10;;
64401;SDS011;50724;42.376;23.768;2024-01-11T15:57:21;15.50;;;7.05;;
64401;SDS011;50724;42.376;23.768;2024-01-11T16:00:22;10.13;;;3.80;;
64401;SDS011;50724;42.376;23.768;2024-01-11T16:03:23;14.38;;;5.82;;
64401;SDS011;50724;42.376;23.768;2024-01-11T16:06:24;13.60;;;6.53;;
64401;SDS011;50724;42.376;23.768;2024-01-11T16:09:24;12.83;;;5.20;;
64401;SDS011;50724;42.376;23.768;2024-01-11T16:12:24;17.00;;;5.90;;
64401;SDS011;50724;42.376;23.768;2024-01-11T16:15:25;11.88;;;5.40;;
64401;SDS011;50724;42.376;23.768;2024-01-11T16:18:25;11.57;;;3.88;;
64401;SDS011;50724;42.376;23.768;2024-01-11T16:21:26;7.63;;;3.35;;
64401;SDS011;50724;42.376;23.768;2024-01-11T16:24:31;10.73;;;5.07;;
64401;SDS011;50724;42.376;23.768;2024-01-11T16:27:31;16.30;;;5.55;;
64401;SDS011;50724;42.376;23.768;2024-01-11T16:30:32;14.80;;;6.25;;
64401;SDS011;50724;42.376;23.768;2024-01-11T16:33:32;15.32;;;5.78;;
64401;SDS011;50724;42.376;23.768;2024-01-11T16:36:35;8.43;;;4.07;;
64401;SDS011;50724;42.376;23.768;2024-01-11T16:39:37;11.57;;;5.05;;
64401;SDS011;50724;42.376;23.768;2024-01-11T16:42:47;10.82;;;4.85;;
64401;SDS011;50724;42.376;23.768;2024-01-11T16:45:56;8.40;;;4.72;;
64401;SDS011;50724;42.376;23.768;2024-01-11T16:48:57;10.43;;;4.35;;
64401;SDS011;50724;42.376;23.768;2024-01-11T16:51:59;10.75;;;5.03;;
64401;SDS011;50724;42.376;23.768;2024-01-11T16:55:00;9.50;;;3.80;;
64401;SDS011;50724;42.376;23.768;2024-01-11T16:58:01;10.00;;;4.88;;
64401;SDS011;50724;42.376;23.768;2024-01-11T17:01:03;9.85;;;3.40;;
64401;SDS011;50724;42.376;23.768;2024-01-11T17:04:03;10.63;;;5.00;;
64401;SDS011;50724;42.376;23.768;2024-01-11T17:07:04;8.80;;;4.25;;
64401;SDS011;50724;42.376;23.768;2024-01-11T17:10:04;11.13;;;4.67;;
64401;SDS011;50724;42.376;23.768;2024-01-11T17:13:05;13.85;;;4.80;;
64401;SDS011;50724;42.376;23.768;2024-01-11T17:16:05;15.35;;;5.40;;
64401;SDS011;50724;42.376;23.768;2024-01-11T17:19:06;10.35;;;4.43;;
64401;SDS011;50724;42.376;23.768;2024-01-11T17:22:07;9.23;;;4.40;;
64401;SDS011;50724;42.376;23.768;2024-01-11T17:25:07;9.45;;;4.55;;
64401;SDS011;50724;42.376;23.768;2024-01-11T17:28:08;11.70;;;4.72;;
64401;SDS011;50724;42.376;23.768;2024-01-11T17:31:08;9.73;;;4.75;;
64401;SDS011;50724;42.376;23.768;2024-01-11T17:34:09;9.65;;;3.63;;
64401;SDS011;50724;42.376;23.768;2024-01-11T17:37:09;10.25;;;4.10;;
64401;SDS011;50724;42.376;23.768;2024-01-11T17:40:10;9.20;;;3.97;;
64401;SDS011;50724;42.376;23.768;2024-01-11T17:43:11;9.60;;;4.32;;
64401;SDS011;50724;42.376;23.768;2024-01-11T17:46:11;7.55;;;3.17;;
64401;SDS011;50724;42.376;23.768;2024-01-11T17:49:12;7.95;;;3.17;;
64401;SDS011;50724;42.376;23.768;2024-01-11T17:52:13;7.22;;;3.33;;
64401;SDS011;50724;42.376;23.768;2024-01-11T17:55:13;6.22;;;2.90;;
64401;SDS011;50724;42.376;23.768;2024-01-11T17:58:14;7.25;;;3.78;;
64401;SDS011;50724;42.376;23.768;2024-01-11T18:01:26;6.55;;;3.13;;
64401;SDS011;50724;42.376;23.768;2024-01-11T18:04:27;9.07;;;3.95;;
64401;SDS011;50724;42.376;23.768;2024-01-11T18:07:27;7.53;;;3.38;;
64401;SDS011;50724;42.376;23.768;2024-01-11T18:10:28;9.43;;;3.78;;
64401;SDS011;50724;42.376;23.768;2024-01-11T18:13:28;10.30;;;4.80;;